GB-0574 weather

CLOSED RNAS HMS Tern Air Base
Twatt, Scotland, United Kingdom

Public forecast

Using degrees Celsius for public forecast. Weather courtesy of forecast.io.

Closest aviation weather report (METAR) to RNAS HMS Tern Air Base

Closest report is Kirkwall Airport, 14.1 nm (26.2 km) ESE. Retrieved 2019/12/15 12:20 UTC (33 minutes ago):

EGPA 151220Z 22008KT 9999 FEW020CB 04/02 Q0978

Closest aviation forecast (TAF) to RNAS HMS Tern Air Base

Closest forecast is RAF Lossiemouth, 83.1 nm (153.9 km) S. Retrieved 2019/12/15 15:30 UTC (0 seconds ago):

TAF TAF EGQS 151315Z 1515/1609 21007KT 9999 SCT030